createdAt,value
2023-04-25T00:00:51.325Z,96386.38
2023-04-25T00:03:19.691Z,96369.91
2023-04-25T00:05:46.642Z,96372.94
2023-04-25T00:08:13.411Z,96379.56
2023-04-25T00:10:40.048Z,96367.84
2023-04-25T00:13:07.343Z,96365.69
2023-04-25T00:15:34.090Z,96384.31
2023-04-25T00:18:00.769Z,96384.84
2023-04-25T00:20:27.525Z,96390.06
2023-04-25T00:22:54.536Z,96400.97
2023-04-25T00:25:21.221Z,96390.06
2023-04-25T00:27:47.937Z,96380.59
2023-04-25T00:30:15.126Z,96387.06
2023-04-25T00:32:41.913Z,96383.50
2023-04-25T00:35:08.982Z,96387.06
2023-04-25T00:37:36.104Z,96377.47
2023-04-25T00:40:02.802Z,96388.78
2023-04-25T00:42:29.785Z,96381.56
2023-04-25T00:44:57.425Z,96385.22
2023-04-25T00:47:24.941Z,96392.34
2023-04-25T00:49:51.702Z,96382.97
2023-04-25T00:52:18.437Z,96384.53
2023-04-25T00:54:45.070Z,96377.91
2023-04-25T00:57:11.860Z,96377.66
2023-04-25T00:59:39.480Z,96372.50
2023-04-25T01:02:06.486Z,96372.84
2023-04-25T01:04:33.218Z,96384.66
2023-04-25T01:06:59.935Z,96366.25
2023-04-25T01:09:26.986Z,96372.38
2023-04-25T01:11:53.894Z,96378.81
2023-04-25T01:14:20.600Z,96373.97
2023-04-25T01:16:47.722Z,96383.94
2023-04-25T01:19:17.785Z,96382.00
2023-04-25T01:21:44.375Z,96373.91
2023-04-25T01:24:11.049Z,96382.22
2023-04-25T01:26:37.695Z,96383.75
2023-04-25T01:29:05.965Z,96375.25
2023-04-25T01:31:33.462Z,96381.13
2023-04-25T01:34:00.168Z,96378.69
2023-04-25T01:36:28.133Z,96365.50
2023-04-25T01:38:55.081Z,96383.63
2023-04-25T01:43:51.121Z,96386.88
2023-04-25T01:46:17.976Z,96383.47
2023-04-25T01:48:45.053Z,96395.06
2023-04-25T01:51:12.676Z,96397.66
2023-04-25T01:53:39.928Z,96401.41
2023-04-25T01:56:07.026Z,96381.84
2023-04-25T01:58:33.630Z,96392.94
2023-04-25T02:01:00.403Z,96394.88
2023-04-25T02:03:27.274Z,96397.19
2023-04-25T02:05:54.113Z,96394.06
2023-04-25T02:08:20.975Z,96400.75
2023-04-25T02:10:47.694Z,96401.56
2023-04-25T02:13:14.382Z,96390.16
2023-04-25T02:15:41.145Z,96402.41
2023-04-25T02:18:07.996Z,96389.34
2023-04-25T02:20:34.973Z,96399.31
2023-04-25T02:23:01.515Z,96385.94
2023-04-25T02:25:28.392Z,96388.38
2023-04-25T02:27:55.666Z,96396.53
2023-04-25T02:30:22.319Z,96395.38
2023-04-25T02:32:49.015Z,96400.78
2023-04-25T02:35:15.733Z,96399.47
2023-04-25T02:37:43.178Z,96398.16
2023-04-25T02:40:10.254Z,96392.47
2023-04-25T02:42:36.939Z,96393.44
2023-04-25T02:45:04.209Z,96406.00
2023-04-25T02:47:31.243Z,96396.53
2023-04-25T02:49:57.981Z,96407.16
2023-04-25T02:52:24.629Z,96404.19
2023-04-25T02:54:51.597Z,96410.41
2023-04-25T02:57:18.228Z,96413.47
2023-04-25T02:59:44.789Z,96405.97
2023-04-25T03:02:11.667Z,96411.84
2023-04-25T03:04:38.696Z,96401.75
2023-04-25T03:07:06.146Z,96408.59
2023-04-25T03:09:32.729Z,96405.34
2023-04-25T03:11:59.385Z,96394.56
2023-04-25T03:14:25.979Z,96397.84
2023-04-25T03:16:52.693Z,96405.97
2023-04-25T03:19:19.685Z,96400.59
2023-04-25T03:21:46.365Z,96406.63
2023-04-25T03:24:13.522Z,96405.00
2023-04-25T03:26:40.199Z,96400.44
2023-04-25T03:29:06.954Z,96406.63
2023-04-25T03:31:33.665Z,96394.88
2023-04-25T03:34:00.577Z,96395.88
2023-04-25T03:36:27.192Z,96398.16
2023-04-25T03:38:53.901Z,96406.63
2023-04-25T03:41:21.165Z,96398.00
2023-04-25T03:43:47.862Z,96410.88
2023-04-25T03:46:14.748Z,96408.91
2023-04-25T03:48:42.020Z,96406.97
2023-04-25T03:51:08.649Z,96407.28
2023-04-25T03:53:35.351Z,96405.97
2023-04-25T03:56:02.024Z,96419.38
2023-04-25T03:58:28.654Z,96409.72
2023-04-25T04:00:55.366Z,96402.72
2023-04-25T04:03:22.505Z,96402.41
2023-04-25T04:05:49.567Z,96403.22
2023-04-25T04:08:16.302Z,96398.81
2023-04-25T04:10:42.989Z,96404.03
2023-04-25T04:13:09.626Z,96420.00
2023-04-25T04:15:36.351Z,96417.41
2023-04-25T04:18:04.015Z,96421.97
2023-04-25T04:20:31.580Z,96428.28
2023-04-25T04:22:58.238Z,96426.50
2023-04-25T04:25:25.625Z,96422.25
2023-04-25T04:27:55.927Z,96426.19
2023-04-25T04:30:26.529Z,96429.75
2023-04-25T04:32:53.500Z,96425.72
2023-04-25T04:35:20.262Z,96423.91
2023-04-25T04:37:46.959Z,96444.31
2023-04-25T04:40:16.517Z,96425.56
2023-04-25T04:42:44.342Z,96444.97
2023-04-25T04:45:11.390Z,96445.13
2023-04-25T04:47:38.576Z,96441.53
2023-04-25T04:50:05.500Z,96454.59
2023-04-25T04:52:32.110Z,96451.00
2023-04-25T04:54:58.702Z,96452.63
2023-04-25T04:57:25.856Z,96453.28
2023-04-25T04:59:52.620Z,96463.56
2023-04-25T05:02:19.308Z,96464.84
2023-04-25T05:04:46.290Z,96470.22
2023-04-25T05:07:12.917Z,96472.53
2023-04-25T05:09:39.608Z,96481.66
2023-04-25T05:12:06.453Z,96465.69
2023-04-25T05:14:33.044Z,96474.53
2023-04-25T05:16:59.732Z,96464.28
2023-04-25T05:19:26.536Z,96472.59
2023-04-25T05:21:53.380Z,96473.06
2023-04-25T05:24:20.029Z,96468.50
2023-04-25T05:26:46.753Z,96484.00
2023-04-25T05:29:13.469Z,96491.53
2023-04-25T05:31:40.076Z,96498.06
2023-04-25T05:34:06.847Z,96483.34
2023-04-25T05:36:33.806Z,96496.06
2023-04-25T05:39:00.512Z,96492.19
2023-04-25T05:41:27.047Z,96496.41
2023-04-25T05:43:55.437Z,96501.19
2023-04-25T05:46:23.867Z,96521.56
2023-04-25T05:48:50.616Z,96529.44
2023-04-25T05:51:17.452Z,96521.72
2023-04-25T05:53:44.035Z,96523.50
2023-04-25T05:56:10.729Z,96535.88
2023-04-25T05:58:37.524Z,96527.50
2023-04-25T06:01:04.207Z,96544.13
2023-04-25T06:03:31.518Z,96536.28
2023-04-25T06:05:58.536Z,96540.84
2023-04-25T06:08:25.165Z,96543.94
2023-04-25T06:10:51.816Z,96540.97
2023-04-25T06:13:18.456Z,96549.78
2023-04-25T06:15:45.251Z,96564.66
2023-04-25T06:18:11.959Z,96554.38
2023-04-25T06:20:38.522Z,96565.81
2023-04-25T06:23:05.152Z,96553.59
2023-04-25T06:25:31.891Z,96569.47
2023-04-25T06:27:58.464Z,96572.41
2023-04-25T06:30:26.822Z,96564.25
2023-04-25T06:32:56.746Z,96568.19
2023-04-25T06:35:23.455Z,96581.75
2023-04-25T06:37:50.094Z,96571.09
2023-04-25T06:40:18.468Z,96576.22
2023-04-25T06:42:45.450Z,96565.66
2023-04-25T06:45:12.077Z,96560.25
2023-04-25T06:47:38.798Z,96572.22
2023-04-25T06:50:07.038Z,96567.00
2023-04-25T06:52:34.115Z,96572.53
2023-04-25T06:55:00.887Z,96576.44
2023-04-25T06:57:27.495Z,96581.66
2023-04-25T06:59:54.130Z,96587.38
2023-04-25T07:02:22.287Z,96587.56
2023-04-25T07:04:49.211Z,96596.03
2023-04-25T07:07:16.107Z,96595.72
2023-04-25T07:09:42.733Z,96597.78
2023-04-25T07:12:09.493Z,96581.88
2023-04-25T07:14:36.100Z,96587.41
2023-04-25T07:17:03.007Z,96586.41
2023-04-25T07:19:30.938Z,96589.88
2023-04-25T07:21:57.611Z,96590.50
2023-04-25T07:24:24.278Z,96580.56
2023-04-25T07:26:51.057Z,96607.69
2023-04-25T07:29:17.788Z,96595.72
2023-04-25T07:31:44.470Z,96602.59
2023-04-25T07:34:11.432Z,96604.19
2023-04-25T07:36:38.049Z,96609.09
2023-04-25T07:39:04.707Z,96599.59
2023-04-25T07:41:31.422Z,96598.28
2023-04-25T07:43:58.066Z,96605.63
2023-04-25T07:46:24.959Z,96603.81
2023-04-25T07:48:51.850Z,96618.47
2023-04-25T07:51:21.047Z,96625.81
2023-04-25T07:53:50.122Z,96624.19
2023-04-25T07:56:17.437Z,96617.66
2023-04-25T07:58:44.151Z,96629.69
2023-04-25T08:01:10.803Z,96622.75
2023-04-25T08:03:37.635Z,96628.31
2023-04-25T08:06:07.670Z,96615.84
2023-04-25T08:08:34.903Z,96633.59
2023-04-25T08:11:01.589Z,96622.28
2023-04-25T08:13:28.259Z,96630.63
2023-04-25T08:15:55.876Z,96642.94
2023-04-25T08:18:22.729Z,96628.06
2023-04-25T08:20:49.488Z,96645.38
2023-04-25T08:23:16.328Z,96648.28
2023-04-25T08:25:43.034Z,96639.84
2023-04-25T08:28:09.695Z,96647.94
2023-04-25T08:30:36.407Z,96658.69
2023-04-25T08:33:03.216Z,96658.16
2023-04-25T08:35:29.926Z,96676.44
2023-04-25T08:37:56.620Z,96668.19
2023-04-25T08:40:29.871Z,96690.38
2023-04-25T08:42:58.065Z,96673.00
2023-04-25T08:45:26.437Z,96695.13
2023-04-25T08:47:54.272Z,96683.38
2023-04-25T08:50:23.378Z,96691.69
2023-04-25T08:52:53.492Z,96692.16
2023-04-25T08:55:20.558Z,96683.75
2023-04-25T08:57:47.603Z,96695.31
2023-04-25T09:00:15.310Z,96701.31
2023-04-25T09:02:43.833Z,96717.03
2023-04-25T09:05:13.327Z,96704.22
2023-04-25T09:07:40.002Z,96720.13
2023-04-25T09:10:07.171Z,96715.81
2023-04-25T09:12:34.409Z,96722.69
2023-04-25T09:15:12.050Z,96735.84
2023-04-25T09:17:41.755Z,96727.81
2023-04-25T09:20:09.228Z,96742.81
2023-04-25T09:22:37.354Z,96726.63
2023-04-25T09:25:09.208Z,96740.00
2023-04-25T09:27:36.099Z,96741.97
2023-04-25T09:30:03.097Z,96749.81
2023-04-25T09:32:30.037Z,96737.50
2023-04-25T09:34:58.071Z,96735.84
2023-04-25T09:37:25.793Z,96737.53
2023-04-25T09:39:57.745Z,96747.31
2023-04-25T09:42:26.207Z,96749.03
2023-04-25T09:44:54.168Z,96751.84
2023-04-25T09:47:23.215Z,96757.66
2023-04-25T09:49:50.726Z,96749.94
2023-04-25T09:52:25.802Z,96766.56
2023-04-25T09:54:53.488Z,96769.06
2023-04-25T09:57:20.195Z,96766.13
2023-04-25T09:59:53.628Z,96779.13
2023-04-25T10:02:25.033Z,96769.63
2023-04-25T10:04:55.966Z,96764.84
2023-04-25T10:07:27.113Z,96771.50
2023-04-25T10:10:04.970Z,96770.09
2023-04-25T10:12:32.452Z,96780.72
2023-04-25T10:14:59.885Z,96797.50
2023-04-25T10:17:29.047Z,96802.91
2023-04-25T10:19:56.231Z,96797.88
2023-04-25T10:22:41.368Z,96782.59
2023-04-25T10:25:09.526Z,96776.81
2023-04-25T10:27:38.189Z,96769.25
2023-04-25T10:30:10.155Z,96770.94
2023-04-25T10:32:37.163Z,96765.50
2023-04-25T10:35:17.223Z,96763.75
2023-04-25T10:38:06.832Z,96786.44
2023-04-25T10:40:34.811Z,96785.78
2023-04-25T10:43:32.751Z,96789.28
2023-04-25T10:46:03.157Z,96786.84
2023-04-25T10:48:32.022Z,96782.75
2023-04-25T10:51:11.815Z,96781.94
2023-04-25T10:53:38.855Z,96762.19
2023-04-25T10:56:33.281Z,96771.84
2023-04-25T10:59:08.451Z,96757.34
2023-04-25T11:01:43.800Z,96766.81
2023-04-25T11:07:25.272Z,96779.13
2023-04-25T11:09:52.461Z,96778.63
2023-04-25T11:12:19.164Z,96790.03
2023-04-25T11:14:46.118Z,96796.56
2023-04-25T11:17:12.941Z,96805.19
2023-04-25T11:19:39.767Z,96798.44
2023-04-25T11:22:07.146Z,96798.03
2023-04-25T11:24:35.897Z,96800.78
2023-04-25T11:27:03.863Z,96799.38
2023-04-25T11:29:31.721Z,96799.88
2023-04-25T11:32:02.374Z,96803.41
2023-04-25T11:34:33.996Z,96788.44
2023-04-25T11:37:02.747Z,96790.72
2023-04-25T11:39:30.114Z,96796.91
2023-04-25T11:41:56.968Z,96804.06
2023-04-25T11:44:23.658Z,96794.63
2023-04-25T11:46:50.489Z,96800.66
2023-04-25T11:49:19.480Z,96801.69
2023-04-25T11:51:48.466Z,96803.78
2023-04-25T11:54:16.021Z,96809.34
2023-04-25T11:56:46.614Z,96800.69
2023-04-25T11:59:14.124Z,96804.47
2023-04-25T12:01:42.862Z,96789.53
2023-04-25T12:04:17.682Z,96792.81
2023-04-25T12:06:48.680Z,96787.56
2023-04-25T12:09:19.032Z,96807.44
2023-04-25T12:11:47.026Z,96811.59
2023-04-25T12:14:21.654Z,96820.38
2023-04-25T12:16:49.422Z,96804.97
2023-04-25T12:19:17.175Z,96805.03
2023-04-25T12:21:57.274Z,96819.63
2023-04-25T12:24:27.217Z,96817.84
2023-04-25T12:27:00.880Z,96819.97
2023-04-25T12:29:34.618Z,96815.56
2023-04-25T12:32:05.558Z,96825.28
2023-04-25T12:34:33.557Z,96825.78
2023-04-25T12:37:00.212Z,96842.44
2023-04-25T12:39:27.046Z,96858.06
2023-04-25T12:41:55.183Z,96845.22
2023-04-25T12:44:22.392Z,96846.84
2023-04-25T12:46:49.786Z,96858.53
2023-04-25T12:52:03.300Z,96853.66
2023-04-25T12:54:29.905Z,96860.63
2023-04-25T12:55:52.583Z,96848.91
2023-04-25T12:56:56.751Z,96854.72
2023-04-25T12:59:23.649Z,96859.09
2023-04-25T13:01:50.649Z,96843.53
2023-04-25T13:04:17.764Z,96851.91
2023-04-25T13:06:44.760Z,96832.38
2023-04-25T13:09:13.616Z,96834.31
2023-04-25T13:11:41.690Z,96831.84
2023-04-25T13:14:08.958Z,96847.13
2023-04-25T13:16:35.865Z,96843.59
2023-04-25T13:19:02.679Z,96859.56
2023-04-25T13:21:33.257Z,96856.91
2023-04-25T13:24:00.146Z,96852.09
2023-04-25T13:26:27.102Z,96851.84
2023-04-25T13:28:54.077Z,96860.09
2023-04-25T13:31:21.163Z,96853.00
2023-04-25T13:33:49.405Z,96858.78
2023-04-25T13:36:16.282Z,96866.94
2023-04-25T13:38:45.096Z,96861.34
2023-04-25T13:41:16.807Z,96848.81
2023-04-25T13:43:43.615Z,96837.06
2023-04-25T13:46:24.830Z,96849.25
2023-04-25T13:49:06.134Z,96870.94
2023-04-25T13:51:38.396Z,96878.41
2023-04-25T13:54:05.184Z,96846.91
2023-04-25T13:56:32.283Z,96858.84
2023-04-25T13:58:59.300Z,96872.94
2023-04-25T14:01:26.396Z,96868.66
2023-04-25T14:03:53.587Z,96856.97
2023-04-25T14:06:24.117Z,96857.16
2023-04-25T14:08:52.021Z,96851.31
2023-04-25T14:11:21.576Z,96868.47
2023-04-25T14:13:50.454Z,96863.69
2023-04-25T14:16:17.893Z,96873.94
2023-04-25T14:18:44.898Z,96864.16
2023-04-25T14:21:11.910Z,96859.91
2023-04-25T14:23:38.708Z,96864.47
2023-04-25T14:26:05.954Z,96851.25
2023-04-25T14:28:33.207Z,96865.38
2023-04-25T14:31:00.377Z,96848.47
2023-04-25T14:33:27.724Z,96848.06
2023-04-25T14:35:54.527Z,96862.88
2023-04-25T14:38:24.421Z,96875.59
2023-04-25T14:40:51.612Z,96881.88
2023-04-25T14:43:18.691Z,96886.94
2023-04-25T14:45:45.983Z,96901.41
2023-04-25T14:48:13.243Z,96925.28
2023-04-25T14:50:40.199Z,96932.88
2023-04-25T14:53:06.956Z,96930.38
2023-04-25T14:55:33.828Z,96929.00
2023-04-25T14:58:01.720Z,96910.16
2023-04-25T15:00:28.685Z,96939.44
2023-04-25T15:02:55.851Z,96917.94
2023-04-25T15:05:23.035Z,96938.84
2023-04-25T15:07:50.127Z,96918.41
2023-04-25T15:10:19.120Z,96916.69
2023-04-25T15:12:47.845Z,96908.47
2023-04-25T15:15:22.754Z,96911.84
2023-04-25T15:18:02.191Z,96915.47
2023-04-25T15:20:29.193Z,96899.22
2023-04-25T15:22:56.376Z,96895.53
2023-04-25T15:25:23.678Z,96900.41
2023-04-25T15:27:53.035Z,96897.09
2023-04-25T15:30:20.818Z,96916.47
2023-04-25T15:32:48.747Z,96898.97
2023-04-25T15:35:16.561Z,96911.81
2023-04-25T15:37:43.828Z,96896.09
2023-04-25T15:40:16.602Z,96908.06
2023-04-25T15:42:48.151Z,96912.00
2023-04-25T15:45:17.907Z,96892.19
2023-04-25T15:47:45.304Z,96904.91
2023-04-25T15:50:13.066Z,96898.88
2023-04-25T15:52:40.205Z,96900.50
2023-04-25T15:55:09.016Z,96907.22
2023-04-25T15:57:37.045Z,96897.19
2023-04-25T16:00:15.392Z,96894.31
2023-04-25T16:02:44.523Z,96901.84
2023-04-25T16:05:13.333Z,96892.81
2023-04-25T16:10:24.787Z,96893.34
2023-04-25T16:15:37.130Z,96897.63
2023-04-25T16:18:04.783Z,96897.50
2023-04-25T16:20:32.094Z,96899.41
2023-04-25T16:22:59.671Z,96890.69
2023-04-25T16:25:27.600Z,96909.09
2023-04-25T16:27:55.395Z,96896.38
2023-04-25T16:30:23.784Z,96903.03
2023-04-25T16:32:50.932Z,96901.75
2023-04-25T16:35:18.043Z,96913.88
2023-04-25T16:37:44.963Z,96930.25
2023-04-25T16:40:12.441Z,96926.53
2023-04-25T16:42:39.331Z,96925.78
2023-04-25T16:45:06.518Z,96928.59
2023-04-25T16:47:33.327Z,96928.34
2023-04-25T16:50:01.699Z,96943.09
2023-04-25T16:52:28.518Z,96933.06
2023-04-25T16:54:55.255Z,96936.00
2023-04-25T16:57:22.231Z,96927.81
2023-04-25T16:59:49.106Z,96942.88
2023-04-25T17:02:32.867Z,96937.16
2023-04-25T17:07:41.249Z,96958.28
2023-04-25T17:10:08.932Z,96945.97
2023-04-25T17:12:35.894Z,96958.91
2023-04-25T17:15:02.705Z,96936.97
2023-04-25T17:17:29.618Z,96933.50
2023-04-25T17:25:50.988Z,96956.00
2023-04-25T17:28:18.110Z,96946.00
2023-04-25T17:30:45.118Z,96943.88
2023-04-25T17:33:12.095Z,96944.41
2023-04-25T17:35:39.025Z,96960.25
2023-04-25T17:38:06.297Z,96971.09
2023-04-25T17:40:33.180Z,96955.66
2023-04-25T17:43:00.256Z,96964.19
2023-04-25T17:45:27.314Z,96958.91
2023-04-25T17:47:54.185Z,96970.56
2023-04-25T17:50:21.184Z,96966.13
2023-04-25T17:52:48.760Z,96958.59
2023-04-25T17:55:15.607Z,96982.66
2023-04-25T17:57:42.447Z,96974.97
2023-04-25T18:00:09.863Z,96980.53
2023-04-25T18:02:37.154Z,96984.63
2023-04-25T18:05:09.433Z,96984.81
2023-04-25T18:07:37.132Z,96982.81
2023-04-25T18:10:08.396Z,96989.03
2023-04-25T18:12:38.825Z,96998.47
2023-04-25T18:15:07.189Z,96994.88
2023-04-25T18:17:40.679Z,97005.34
2023-04-25T18:20:12.115Z,97006.66
2023-04-25T18:22:38.990Z,97025.31
2023-04-25T18:25:08.528Z,97004.94
2023-04-25T18:27:35.886Z,97011.94
2023-04-25T18:30:03.870Z,97013.06
2023-04-25T18:32:31.976Z,97017.38
2023-04-25T18:34:59.406Z,97031.75
2023-04-25T18:37:26.773Z,97029.66
2023-04-25T18:39:54.933Z,97025.94
2023-04-25T18:42:22.830Z,97045.22
2023-04-25T18:44:49.929Z,97047.41
2023-04-25T18:47:17.712Z,97046.88
2023-04-25T18:49:46.481Z,97032.72
2023-04-25T18:52:16.277Z,97043.53
2023-04-25T18:54:46.138Z,97042.69
2023-04-25T18:57:15.709Z,97042.69
2023-04-25T18:59:44.395Z,97048.91
2023-04-25T19:02:13.078Z,97056.00
2023-04-25T19:04:40.528Z,97075.34
2023-04-25T19:07:07.899Z,97072.41
2023-04-25T19:09:35.514Z,97067.34
2023-04-25T19:12:04.147Z,97069.50
2023-04-25T19:14:33.229Z,97061.81
2023-04-25T19:17:01.002Z,97080.09
2023-04-25T19:19:28.345Z,97063.69
2023-04-25T19:21:55.638Z,97064.38
2023-04-25T19:24:25.567Z,97069.28
2023-04-25T19:26:53.077Z,97089.97
2023-04-25T19:29:19.976Z,97075.56
2023-04-25T19:31:47.306Z,97082.06
2023-04-25T19:34:15.579Z,97094.59
2023-04-25T19:36:43.046Z,97089.00
2023-04-25T19:39:13.532Z,97089.69
2023-04-25T19:41:40.950Z,97094.50
2023-04-25T19:44:09.723Z,97085.78
2023-04-25T19:46:37.712Z,97079.38
2023-04-25T19:49:09.078Z,97089.53
2023-04-25T19:51:37.255Z,97099.69
2023-04-25T19:54:06.947Z,97100.13
2023-04-25T19:56:35.023Z,97077.56
2023-04-25T19:59:02.108Z,97104.72
2023-04-25T20:01:29.663Z,97086.72
2023-04-25T20:03:57.348Z,97105.38
2023-04-25T20:06:29.227Z,97084.88
2023-04-25T20:08:56.654Z,97104.19
2023-04-25T20:11:31.761Z,97093.19
2023-04-25T20:13:59.266Z,97097.19
2023-04-25T20:16:26.605Z,97118.75
2023-04-25T20:18:59.865Z,97107.28
2023-04-25T20:21:27.763Z,97104.84
2023-04-25T20:23:58.853Z,97107.06
2023-04-25T20:26:27.024Z,97122.97
2023-04-25T20:28:54.717Z,97116.44
2023-04-25T20:31:25.329Z,97106.84
2023-04-25T20:34:04.518Z,97109.88
2023-04-25T20:36:33.331Z,97113.75
2023-04-25T20:39:04.757Z,97133.38
2023-04-25T20:41:32.420Z,97120.91
2023-04-25T20:44:09.968Z,97131.47
2023-04-25T20:46:37.925Z,97121.47
2023-04-25T20:49:06.752Z,97124.78
2023-04-25T20:51:36.198Z,97131.09
2023-04-25T20:54:09.720Z,97126.13
2023-04-25T20:56:38.673Z,97145.47
2023-04-25T20:59:08.347Z,97142.88
2023-04-25T21:01:36.010Z,97126.56
2023-04-25T21:04:05.063Z,97129.13
2023-04-25T21:06:39.059Z,97126.38
2023-04-25T21:09:08.418Z,97133.88
2023-04-25T21:11:48.184Z,97130.19
2023-04-25T21:14:27.428Z,97157.88
2023-04-25T21:19:43.325Z,97156.63
2023-04-25T21:22:11.242Z,97152.53
2023-04-25T21:24:38.683Z,97157.47
2023-04-25T21:29:50.373Z,97143.47
2023-04-25T21:32:25.357Z,97143.88
2023-04-25T21:34:54.310Z,97144.56
2023-04-25T21:37:22.792Z,97136.03
2023-04-25T21:39:58.486Z,97135.31
2023-04-25T21:45:14.557Z,97138.47
2023-04-25T21:47:43.507Z,97142.00
2023-04-25T22:06:32.083Z,97145.81
2023-04-25T22:22:44.635Z,97153.84
